Airfield :
LOGIN :

Register | Disclaimer

   EN    FR    IT 

 










Legend :    VFR   Marginal VFR   IFR   Intensive IFR   Very Intensive IFR
Visi :
Ceiling :
>= 8 km
>= 3000ft
5 to 8 km
1000 to 3000 ft
1500m to 5 km
500 to 1000 ft
800 to 1500m
200 to 500 ft
< 800m
< 200 ft
Symbols :   Thunderstorms  Fog  Heavy snow  Heavy precipitations  Wind > 20 kt
SIGMETs :     Misc.  Thunderstorms  Icing  Turbulence  Mountain Waves  Volcanic Ashes







- Airport Elevation : 72 ft
- IATA code : UDE


EHVK - Volkel Airbase

CURRENT METAR :
  • 211525Z AUTO 03007KT 030V110 9999 BKN350 22/08 Q1019 BLU

EXPIRED METARs :
  • 211455Z AUTO 02007KT 350V090 9999 OVC350 23/08 Q1020 BLU
  • 211425Z AUTO 02007KT 350V080 9999 OVC360 22/08 Q1020 BLU
  • 211355Z AUTO 02007KT 350V070 9999 OVC360 22/10 Q1020 BLU
  • 211325Z AUTO 02007KT 330V070 9999 BKN370 22/09 Q1021 BLU
  • 211255Z AUTO 04006KT 300V080 9999 SCT370 22/11 Q1021 BLU

Expired Forecast.
No reported NOTAMs for that airfield.



MET'MAP, your aeronautical weather chart ! - Copyright ORBIFLY December 2007 - Disclaimer

ORBIFLY MET'MAP TEAM :

Programming & Development : Alexandra Zaïnal
Concept & Development : Baudouin d'Aumeries
Co-Development & Prog : Marc-Olivier Méhu
Technical & hardware support : Manuel Goepfert

Contact : metmap@orbifly.com




SOURCES & CREDITS :

   NOAA